createdAt,value
2022-10-18T00:00:39.243Z,12.05
2022-10-18T00:03:06.839Z,11.25
2022-10-18T00:05:34.376Z,11.18
2022-10-18T00:08:01.991Z,11.80
2022-10-18T00:10:29.265Z,11.63
2022-10-18T00:12:56.588Z,11.45
2022-10-18T00:15:23.904Z,11.70
2022-10-18T00:17:51.269Z,11.65
2022-10-18T00:20:18.582Z,11.55
2022-10-18T00:22:45.993Z,11.15
2022-10-18T00:25:13.649Z,12.05
2022-10-18T00:27:40.907Z,10.82
2022-10-18T00:30:08.903Z,12.10
2022-10-18T00:32:38.102Z,11.68
2022-10-18T00:35:06.827Z,11.65
2022-10-18T00:37:35.180Z,11.02
2022-10-18T00:40:02.617Z,11.88
2022-10-18T00:42:35.953Z,12.07
2022-10-18T00:45:18.218Z,11.68
2022-10-18T00:47:51.942Z,11.90
2022-10-18T00:50:21.560Z,11.45
2022-10-18T00:53:01.322Z,11.70
2022-10-18T00:55:31.267Z,11.93
2022-10-18T00:57:59.047Z,11.93
2022-10-18T01:00:26.400Z,11.85
2022-10-18T01:02:54.564Z,12.40
2022-10-18T01:05:21.947Z,10.98
2022-10-18T01:08:27.751Z,11.32
2022-10-18T01:11:04.729Z,11.48
2022-10-18T01:13:41.754Z,10.82
2022-10-18T01:16:27.013Z,11.65
2022-10-18T01:19:19.203Z,11.13
2022-10-18T01:22:04.583Z,11.00
2022-10-18T01:24:53.243Z,11.73
2022-10-18T01:27:57.985Z,12.18
2022-10-18T01:30:38.220Z,10.85
2022-10-18T01:33:27.788Z,12.10
2022-10-18T01:36:05.884Z,11.48
2022-10-18T01:38:35.171Z,11.13
2022-10-18T01:41:04.960Z,11.98
2022-10-18T01:43:34.562Z,12.07
2022-10-18T01:46:04.266Z,11.60
2022-10-18T01:48:32.102Z,11.38
2022-10-18T01:50:59.461Z,12.10
2022-10-18T01:53:31.685Z,11.75
2022-10-18T01:56:13.274Z,10.95
2022-10-18T01:58:48.947Z,11.63
2022-10-18T02:01:43.723Z,10.75
2022-10-18T02:04:28.871Z,11.75
2022-10-18T02:07:04.005Z,11.80
2022-10-18T02:09:42.951Z,11.77
2022-10-18T02:12:14.491Z,11.30
2022-10-18T02:14:43.866Z,12.40
2022-10-18T02:17:13.005Z,11.30
2022-10-18T02:19:46.206Z,12.70
2022-10-18T02:22:15.192Z,11.77
2022-10-18T02:24:47.139Z,11.40
2022-10-18T02:27:14.817Z,12.48
2022-10-18T02:29:43.305Z,12.30
2022-10-18T02:32:34.683Z,11.20
2022-10-18T02:35:22.093Z,11.75
2022-10-18T02:37:52.026Z,11.48
2022-10-18T02:40:19.948Z,11.07
2022-10-18T02:42:50.175Z,11.38
2022-10-18T02:45:17.616Z,11.27
2022-10-18T02:47:45.412Z,11.57
2022-10-18T02:50:13.185Z,11.30
2022-10-18T02:52:40.461Z,11.93
2022-10-18T02:55:10.022Z,11.65
2022-10-18T02:57:37.458Z,11.85
2022-10-18T03:00:06.649Z,11.50
2022-10-18T03:02:34.008Z,12.65
2022-10-18T03:05:01.434Z,12.00
2022-10-18T03:07:28.875Z,11.93
2022-10-18T03:09:56.317Z,11.35
2022-10-18T03:12:23.602Z,11.43
2022-10-18T03:14:50.970Z,11.38
2022-10-18T03:17:18.343Z,12.13
2022-10-18T03:19:45.672Z,11.30
2022-10-18T03:22:13.055Z,11.27
2022-10-18T03:24:40.289Z,10.90
2022-10-18T03:27:07.787Z,10.65
2022-10-18T03:29:35.123Z,11.23
2022-10-18T03:32:02.716Z,11.57
2022-10-18T03:34:30.037Z,12.85
2022-10-18T03:37:00.952Z,11.68
2022-10-18T03:39:30.706Z,11.80
2022-10-18T03:41:58.047Z,11.32
2022-10-18T03:44:25.357Z,10.75
2022-10-18T03:46:52.634Z,11.57
2022-10-18T03:49:20.049Z,11.68
2022-10-18T03:51:47.373Z,12.13
2022-10-18T03:54:14.646Z,11.88
2022-10-18T03:56:41.918Z,12.00
2022-10-18T03:59:09.160Z,11.07
2022-10-18T04:01:36.468Z,11.60
2022-10-18T04:04:03.802Z,12.32
2022-10-18T04:06:31.032Z,12.38
2022-10-18T04:08:58.223Z,11.38
2022-10-18T04:11:25.599Z,11.50
2022-10-18T04:13:52.852Z,11.35
2022-10-18T04:16:20.238Z,11.68
2022-10-18T04:18:47.495Z,11.63
2022-10-18T04:21:14.923Z,11.38
2022-10-18T04:23:42.395Z,11.32
2022-10-18T04:26:09.790Z,11.02
2022-10-18T04:28:40.111Z,11.10
2022-10-18T04:31:07.631Z,11.50
2022-10-18T04:33:35.262Z,11.73
2022-10-18T04:36:02.689Z,11.65
2022-10-18T04:38:29.979Z,11.90
2022-10-18T04:40:57.311Z,12.48
2022-10-18T04:43:24.575Z,11.88
2022-10-18T04:45:51.812Z,12.30
2022-10-18T04:48:19.264Z,13.30
2022-10-18T04:50:51.122Z,12.20
2022-10-18T04:53:18.958Z,11.38
2022-10-18T04:55:48.877Z,11.82
2022-10-18T04:58:17.827Z,10.48
2022-10-18T05:00:45.795Z,11.30
2022-10-18T05:03:14.189Z,11.98
2022-10-18T05:06:00.756Z,11.30
2022-10-18T05:08:29.445Z,11.48
2022-10-18T05:10:56.927Z,11.52
2022-10-18T05:13:24.467Z,11.70
2022-10-18T05:15:51.804Z,11.70
2022-10-18T05:18:19.136Z,11.35
2022-10-18T05:20:46.796Z,12.07
2022-10-18T05:23:14.091Z,11.32
2022-10-18T05:25:42.624Z,10.68
2022-10-18T05:28:15.691Z,10.43
2022-10-18T05:30:54.756Z,12.05
2022-10-18T05:33:21.983Z,11.35
2022-10-18T05:35:49.451Z,11.98
2022-10-18T05:38:16.678Z,10.73
2022-10-18T05:40:43.898Z,11.43
2022-10-18T05:43:11.155Z,12.10
2022-10-18T05:45:38.416Z,12.02
2022-10-18T05:48:07.649Z,10.95
2022-10-18T05:50:38.053Z,11.63
2022-10-18T05:53:12.474Z,11.10
2022-10-18T05:55:51.834Z,11.95
2022-10-18T05:58:19.069Z,11.27
2022-10-18T06:00:46.675Z,11.50
2022-10-18T06:03:14.078Z,11.70
2022-10-18T06:05:41.302Z,12.05
2022-10-18T06:08:10.277Z,12.00
2022-10-18T06:10:40.026Z,11.30
2022-10-18T06:13:07.284Z,11.82
2022-10-18T06:15:34.586Z,11.20
2022-10-18T06:18:01.850Z,12.68
2022-10-18T06:20:29.156Z,11.38
2022-10-18T06:22:56.371Z,11.48
2022-10-18T06:25:23.686Z,11.75
2022-10-18T06:27:51.022Z,12.57
2022-10-18T06:30:18.452Z,11.20
2022-10-18T06:32:45.815Z,11.65
2022-10-18T06:35:13.551Z,11.55
2022-10-18T06:37:40.748Z,11.50
2022-10-18T06:40:08.492Z,10.95
2022-10-18T06:42:35.872Z,11.45
2022-10-18T06:45:03.426Z,11.18
2022-10-18T06:47:30.679Z,11.52
2022-10-18T06:49:57.967Z,11.65
2022-10-18T06:52:25.950Z,10.93
2022-10-18T06:54:53.933Z,11.32
2022-10-18T06:57:21.702Z,10.73
2022-10-18T06:59:50.104Z,11.32
2022-10-18T07:02:17.445Z,11.20
2022-10-18T07:04:44.782Z,10.60
2022-10-18T07:07:12.127Z,9.75
2022-10-18T07:09:39.452Z,10.40
2022-10-18T07:12:06.917Z,10.80
2022-10-18T07:14:34.276Z,9.80
2022-10-18T07:17:01.558Z,9.38
2022-10-18T07:19:28.820Z,9.73
2022-10-18T07:21:56.178Z,10.50
2022-10-18T07:24:23.576Z,10.95
2022-10-18T07:26:50.957Z,10.15
2022-10-18T07:29:18.313Z,10.68
2022-10-18T07:31:45.643Z,10.65
2022-10-18T07:34:14.005Z,11.35
2022-10-18T07:36:42.118Z,9.90
2022-10-18T07:39:09.600Z,11.07
2022-10-18T07:41:37.315Z,10.15
2022-10-18T07:44:04.839Z,10.88
2022-10-18T07:46:32.713Z,12.98
2022-10-18T07:48:59.980Z,11.10
2022-10-18T07:51:28.031Z,11.13
2022-10-18T07:53:55.296Z,11.30
2022-10-18T07:56:22.730Z,16.20
2022-10-18T07:58:52.402Z,19.27
2022-10-18T08:01:21.670Z,19.38
2022-10-18T08:03:49.283Z,17.42
2022-10-18T08:06:18.822Z,15.30
2022-10-18T08:08:46.615Z,14.60
2022-10-18T08:11:17.116Z,14.25
2022-10-18T08:13:44.567Z,14.13
2022-10-18T08:16:15.941Z,12.43
2022-10-18T08:18:43.528Z,12.23
2022-10-18T08:21:12.785Z,11.45
2022-10-18T08:23:40.689Z,11.60
2022-10-18T08:26:10.965Z,11.07
2022-10-18T08:28:38.947Z,11.30
2022-10-18T08:31:09.906Z,10.23
2022-10-18T08:33:39.953Z,10.60
2022-10-18T08:36:10.913Z,10.45
2022-10-18T08:38:40.417Z,10.23
2022-10-18T08:41:42.839Z,10.88
2022-10-18T08:44:16.062Z,10.88
2022-10-18T08:46:49.832Z,11.10
2022-10-18T08:49:47.289Z,11.48
2022-10-18T08:52:53.073Z,11.02
2022-10-18T08:55:20.233Z,11.88
2022-10-18T08:57:49.028Z,11.55
2022-10-18T09:00:18.323Z,12.05
2022-10-18T09:03:22.209Z,12.18
2022-10-18T09:06:05.533Z,12.13
2022-10-18T09:11:19.381Z,11.88
2022-10-18T09:14:22.183Z,12.98
2022-10-18T09:16:54.667Z,14.20
2022-10-18T09:19:37.044Z,14.73
2022-10-18T09:22:14.001Z,13.93
2022-10-18T09:24:51.807Z,14.57
2022-10-18T09:27:22.965Z,13.93
2022-10-18T09:29:53.091Z,14.32
2022-10-18T09:32:45.056Z,14.48
2022-10-18T09:35:18.589Z,14.40
2022-10-18T09:37:46.745Z,14.52
2022-10-18T09:40:26.125Z,16.25
2022-10-18T09:42:57.331Z,17.38
2022-10-18T09:45:40.309Z,18.35
2022-10-18T09:48:32.323Z,17.15
2022-10-18T09:51:05.563Z,19.25
2022-10-18T09:53:50.240Z,17.48
2022-10-18T09:56:25.531Z,16.27
2022-10-18T09:58:52.999Z,17.15
2022-10-18T10:01:27.257Z,20.05
2022-10-18T10:03:54.909Z,19.10
2022-10-18T10:06:34.649Z,19.00
2022-10-18T10:09:07.694Z,18.48
2022-10-18T10:11:45.473Z,19.88
2022-10-18T10:14:23.680Z,19.58
2022-10-18T10:16:51.028Z,21.58
2022-10-18T10:19:23.515Z,20.35
2022-10-18T10:21:55.041Z,23.10
2022-10-18T10:24:34.815Z,23.75
2022-10-18T10:27:06.095Z,21.55
2022-10-18T10:29:45.729Z,21.75
2022-10-18T10:32:14.993Z,21.15
2022-10-18T10:34:44.738Z,22.02
2022-10-18T10:37:28.293Z,23.15
2022-10-18T10:43:18.155Z,21.63
2022-10-18T10:46:04.125Z,22.02
2022-10-18T10:48:34.399Z,22.05
2022-10-18T10:51:07.309Z,22.60
2022-10-18T10:53:37.471Z,24.20
2022-10-18T10:56:06.938Z,23.02
2022-10-18T10:58:38.022Z,22.67
2022-10-18T11:01:21.879Z,22.08
2022-10-18T11:03:51.480Z,22.98
2022-10-18T11:06:30.891Z,24.25
2022-10-18T11:09:00.113Z,24.25
2022-10-18T11:11:34.310Z,25.25
2022-10-18T11:14:27.700Z,24.83
2022-10-18T11:19:52.998Z,24.00
2022-10-18T11:22:25.603Z,25.80
2022-10-18T11:24:52.978Z,24.63
2022-10-18T11:27:42.227Z,24.23
2022-10-18T11:30:31.034Z,23.88
2022-10-18T11:33:33.659Z,25.20
2022-10-18T11:36:46.216Z,26.60
2022-10-18T11:39:49.098Z,31.23
2022-10-18T11:42:32.013Z,28.93
2022-10-18T11:45:28.622Z,29.02
2022-10-18T11:48:06.256Z,28.50
2022-10-18T11:51:08.470Z,26.65
2022-10-18T11:53:40.661Z,24.48
2022-10-18T11:56:13.948Z,26.45
2022-10-18T11:58:57.011Z,24.77
2022-10-18T12:01:39.432Z,25.50
2022-10-18T12:04:15.812Z,23.40
2022-10-18T12:06:46.972Z,24.35
2022-10-18T12:09:34.605Z,25.38
2022-10-18T12:12:09.595Z,23.52
2022-10-18T12:14:44.359Z,26.00
2022-10-18T12:17:41.640Z,25.92
2022-10-18T12:20:14.754Z,23.15
2022-10-18T12:22:50.168Z,21.10
2022-10-18T12:25:19.028Z,21.70
2022-10-18T12:30:37.240Z,22.25
2022-10-18T12:33:27.121Z,22.85
2022-10-18T12:36:30.156Z,22.27
2022-10-18T12:39:01.607Z,21.45
2022-10-18T12:41:31.230Z,21.85
2022-10-18T12:44:06.223Z,21.15
2022-10-18T12:46:55.220Z,21.08
2022-10-18T12:49:39.201Z,21.13
2022-10-18T12:52:29.922Z,20.90
2022-10-18T12:55:18.375Z,20.70
2022-10-18T12:57:54.543Z,20.58
2022-10-18T13:00:33.848Z,20.10
2022-10-18T13:03:10.825Z,21.33
2022-10-18T13:05:56.080Z,21.58
2022-10-18T13:08:34.084Z,21.13
2022-10-18T13:11:01.309Z,18.80
2022-10-18T13:13:40.621Z,20.67
2022-10-18T13:16:23.377Z,21.35
2022-10-18T13:18:58.235Z,21.27
2022-10-18T13:21:30.981Z,20.55
2022-10-18T13:24:16.858Z,21.50
2022-10-18T13:27:42.481Z,21.13
2022-10-18T13:30:28.061Z,20.63
2022-10-18T13:33:30.885Z,18.67
2022-10-18T13:36:21.791Z,20.25
2022-10-18T13:38:53.513Z,20.50
2022-10-18T13:44:11.593Z,18.17
2022-10-18T13:46:39.670Z,18.23
2022-10-18T13:49:40.932Z,19.98
2022-10-18T13:52:14.592Z,20.17
2022-10-18T13:55:15.773Z,19.75
2022-10-18T13:57:58.073Z,19.27
2022-10-18T14:00:57.645Z,18.63
2022-10-18T14:03:56.996Z,17.17
2022-10-18T14:06:36.019Z,17.83
2022-10-18T14:09:25.924Z,18.13
2022-10-18T14:12:41.205Z,18.10
2022-10-18T14:15:23.469Z,18.33
2022-10-18T14:18:13.053Z,17.83
2022-10-18T14:21:01.334Z,16.95
2022-10-18T14:23:36.891Z,18.40
2022-10-18T14:26:09.332Z,18.20
2022-10-18T14:28:58.430Z,17.13
2022-10-18T14:31:24.064Z,17.50
2022-10-18T14:33:58.421Z,17.60
2022-10-18T14:36:42.160Z,15.80
2022-10-18T14:39:21.111Z,16.63
2022-10-18T14:41:56.770Z,16.83
2022-10-18T14:44:29.420Z,18.35
2022-10-18T14:47:13.897Z,16.35
2022-10-18T14:49:45.804Z,15.93
2022-10-18T14:52:17.400Z,17.25
2022-10-18T14:54:45.898Z,15.55
2022-10-18T14:57:20.747Z,18.33
2022-10-18T14:59:55.715Z,17.05
2022-10-18T15:02:25.633Z,18.70
2022-10-18T15:05:05.021Z,17.88
2022-10-18T15:07:33.247Z,17.00
2022-10-18T15:10:04.053Z,16.75
2022-10-18T15:12:40.982Z,17.52
2022-10-18T15:15:27.397Z,17.40
2022-10-18T15:17:55.559Z,19.92
2022-10-18T15:20:28.776Z,19.48
2022-10-18T15:23:23.360Z,18.58
2022-10-18T15:25:52.881Z,18.40
2022-10-18T15:28:28.764Z,16.77
2022-10-18T15:30:59.377Z,17.02
2022-10-18T15:33:27.530Z,17.83
2022-10-18T15:35:55.029Z,16.98
2022-10-18T15:38:27.432Z,18.33
2022-10-18T15:40:55.589Z,18.42
2022-10-18T15:43:25.654Z,18.55
2022-10-18T15:46:06.517Z,18.25
2022-10-18T15:48:35.946Z,17.60
2022-10-18T15:51:32.364Z,16.67
2022-10-18T15:53:59.653Z,16.95
2022-10-18T15:56:37.438Z,16.17
2022-10-18T15:59:20.754Z,18.02
2022-10-18T16:01:48.367Z,18.70
2022-10-18T16:04:27.173Z,17.88
2022-10-18T16:06:56.034Z,17.25
2022-10-18T16:09:25.199Z,20.60
2022-10-18T16:11:56.699Z,18.83
2022-10-18T16:14:26.235Z,17.52
2022-10-18T16:17:02.937Z,17.13
2022-10-18T16:19:31.995Z,14.73
2022-10-18T16:22:05.171Z,15.45
2022-10-18T16:24:33.612Z,16.58
2022-10-18T16:27:01.039Z,14.52
2022-10-18T16:29:32.255Z,15.80
2022-10-18T16:32:01.224Z,14.77
2022-10-18T16:34:28.756Z,15.05
2022-10-18T16:36:57.413Z,15.07
2022-10-18T16:39:24.994Z,14.40
2022-10-18T16:41:54.308Z,13.73
2022-10-18T16:44:21.869Z,13.70
2022-10-18T16:46:52.392Z,13.65
2022-10-18T16:49:24.241Z,13.75
2022-10-18T16:51:53.948Z,14.00
2022-10-18T16:54:21.919Z,12.05
2022-10-18T16:56:50.518Z,14.55
2022-10-18T16:59:28.678Z,13.13
2022-10-18T17:01:56.337Z,14.27
2022-10-18T17:04:24.070Z,13.38
2022-10-18T17:06:56.597Z,13.65
2022-10-18T17:09:27.973Z,14.38
2022-10-18T17:11:55.605Z,13.10
2022-10-18T17:14:23.150Z,12.80
2022-10-18T17:16:54.853Z,13.07
2022-10-18T17:21:50.653Z,12.48
2022-10-18T17:24:17.913Z,12.55
2022-10-18T17:26:45.998Z,13.18
2022-10-18T17:29:13.415Z,12.68
2022-10-18T17:31:40.868Z,14.20
2022-10-18T17:34:09.002Z,12.88
2022-10-18T17:36:36.261Z,12.65
2022-10-18T17:39:03.923Z,12.70
2022-10-18T17:41:31.365Z,12.55
2022-10-18T17:43:58.750Z,12.43
2022-10-18T17:46:26.121Z,14.38
2022-10-18T17:48:53.807Z,12.77
2022-10-18T17:51:21.969Z,13.43
2022-10-18T17:53:49.384Z,12.82
2022-10-18T17:56:16.905Z,13.88
2022-10-18T17:58:44.231Z,13.90
2022-10-18T18:01:17.421Z,13.35
2022-10-18T18:03:45.083Z,13.50
2022-10-18T18:06:21.204Z,12.35
2022-10-18T18:08:49.572Z,14.00
2022-10-18T18:11:17.946Z,12.98
2022-10-18T18:13:47.746Z,13.52
2022-10-18T18:16:20.752Z,12.50
2022-10-18T18:21:17.745Z,12.52
2022-10-18T18:23:45.605Z,12.25
2022-10-18T18:26:17.171Z,12.88
2022-10-18T18:28:44.667Z,11.95
2022-10-18T18:31:23.608Z,11.45
2022-10-18T18:33:52.870Z,11.85
2022-10-18T18:36:21.150Z,11.23
2022-10-18T18:38:48.857Z,10.73
2022-10-18T18:41:27.691Z,11.50
2022-10-18T18:43:57.537Z,11.98
2022-10-18T18:46:26.342Z,11.10
2022-10-18T18:48:54.462Z,11.00
2022-10-18T18:51:22.537Z,11.40
2022-10-18T18:53:49.928Z,11.45
2022-10-18T18:59:08.929Z,10.88
2022-10-18T19:01:40.536Z,13.27
2022-10-18T19:04:11.624Z,12.25
2022-10-18T19:06:41.701Z,13.55
2022-10-18T19:09:22.586Z,15.02
2022-10-18T19:11:52.965Z,14.00
2022-10-18T19:20:53.696Z,15.70
2022-10-18T19:23:20.969Z,16.98
2022-10-18T19:25:48.225Z,16.52
2022-10-18T19:28:15.575Z,17.02
2022-10-18T19:30:45.646Z,17.13
2022-10-18T19:33:35.370Z,16.08
2022-10-18T19:36:09.163Z,15.07
2022-10-18T19:38:36.582Z,15.93
2022-10-18T19:41:03.900Z,14.60
2022-10-18T19:43:31.223Z,16.20
2022-10-18T19:46:02.803Z,13.68
2022-10-18T19:48:30.197Z,16.27
2022-10-18T19:51:03.002Z,15.50
2022-10-18T19:53:30.255Z,16.27
2022-10-18T19:56:02.180Z,15.27
2022-10-18T19:58:29.695Z,14.90
2022-10-18T20:00:58.185Z,14.98
2022-10-18T20:03:26.826Z,14.00
2022-10-18T20:05:57.880Z,14.73
2022-10-18T20:08:27.104Z,17.10
2022-10-18T20:10:54.906Z,16.20
2022-10-18T20:13:22.434Z,16.80
2022-10-18T20:15:51.137Z,17.58
2022-10-18T20:18:19.800Z,16.90
2022-10-18T20:20:48.402Z,16.35
2022-10-18T20:23:17.272Z,18.92
2022-10-18T20:25:57.478Z,20.42
2022-10-18T20:28:25.875Z,18.25
2022-10-18T20:31:12.518Z,17.50
2022-10-18T20:33:40.055Z,16.60
2022-10-18T20:36:10.939Z,15.10
2022-10-18T20:38:40.788Z,13.45
2022-10-18T20:41:09.972Z,14.38
2022-10-18T20:43:37.857Z,15.45
2022-10-18T20:46:06.539Z,14.88
2022-10-18T20:48:34.940Z,13.90
2022-10-18T20:51:12.932Z,13.50
2022-10-18T20:53:41.022Z,14.00
2022-10-18T20:56:13.268Z,14.57
2022-10-18T20:58:42.564Z,12.85
2022-10-18T21:01:21.329Z,15.05
2022-10-18T21:03:50.443Z,12.77
2022-10-18T21:06:23.841Z,13.50
2022-10-18T21:08:58.923Z,13.85
2022-10-18T21:11:28.766Z,12.93
2022-10-18T21:13:59.518Z,14.00
2022-10-18T21:16:27.174Z,12.95
2022-10-18T21:18:54.926Z,13.60
2022-10-18T21:21:24.932Z,14.30
2022-10-18T21:23:52.385Z,13.38
2022-10-18T21:26:22.158Z,13.02
2022-10-18T21:28:51.578Z,13.27
2022-10-18T21:31:27.215Z,13.30
2022-10-18T21:33:59.530Z,13.23
2022-10-18T21:36:30.026Z,13.88
2022-10-18T21:38:57.585Z,15.13
2022-10-18T21:41:25.255Z,15.77
2022-10-18T21:43:55.288Z,13.60
2022-10-18T21:46:26.178Z,15.60
2022-10-18T21:48:55.209Z,15.68
2022-10-18T21:51:24.722Z,14.63
2022-10-18T21:53:54.308Z,15.82
2022-10-18T21:56:33.177Z,15.55
2022-10-18T21:59:01.750Z,13.60
2022-10-18T22:01:32.477Z,14.73
2022-10-18T22:04:01.828Z,14.38
2022-10-18T22:06:32.478Z,14.40
2022-10-18T22:09:02.828Z,13.85
2022-10-18T22:11:33.645Z,13.63
2022-10-18T22:14:01.463Z,14.18
2022-10-18T22:16:28.861Z,14.35
2022-10-18T22:19:01.645Z,13.80
2022-10-18T22:21:29.678Z,13.25
2022-10-18T22:23:58.109Z,13.65
2022-10-18T22:26:32.270Z,13.48
2022-10-18T22:29:02.290Z,13.45
2022-10-18T22:31:32.682Z,13.13
2022-10-18T22:34:03.138Z,13.10
2022-10-18T22:36:30.768Z,12.68
2022-10-18T22:38:58.051Z,14.13
2022-10-18T22:41:25.537Z,13.68
2022-10-18T22:43:54.419Z,13.45
2022-10-18T22:46:22.935Z,13.85
2022-10-18T22:48:50.403Z,13.57
2022-10-18T22:51:17.778Z,12.63
2022-10-18T22:53:45.629Z,13.63
2022-10-18T22:56:16.651Z,12.02
2022-10-18T22:58:44.168Z,13.48
2022-10-18T23:01:14.052Z,12.93
2022-10-18T23:03:41.798Z,13.43
2022-10-18T23:06:21.700Z,13.15
2022-10-18T23:08:49.679Z,12.45
2022-10-18T23:11:17.331Z,13.05
2022-10-18T23:13:45.443Z,13.23
2022-10-18T23:16:13.128Z,12.73
2022-10-18T23:18:40.945Z,12.65
2022-10-18T23:21:12.130Z,13.15
2022-10-18T23:23:41.627Z,13.75
2022-10-18T23:26:12.479Z,13.10
2022-10-18T23:28:42.357Z,12.80
2022-10-18T23:31:19.350Z,13.10
2022-10-18T23:33:49.092Z,12.48
2022-10-18T23:36:17.012Z,12.65
2022-10-18T23:38:44.409Z,13.85
2022-10-18T23:41:13.527Z,13.73
2022-10-18T23:43:41.806Z,12.90
2022-10-18T23:46:10.125Z,13.38
2022-10-18T23:48:37.838Z,13.20
2022-10-18T23:51:05.948Z,13.45
2022-10-18T23:53:33.584Z,12.98
2022-10-18T23:56:03.183Z,12.98
2022-10-18T23:58:32.672Z,13.80
